sensor_id;sensor_type;location;lat;lon;timestamp;pressure;altitude;pressure_sealevel;temperature;humidity
54808;BME280;40708;50.364;7.550;2023-03-03T00:00:48;100976.94;;;0.32;100.00
54808;BME280;40708;50.364;7.550;2023-03-03T00:03:20;100974.72;;;0.22;100.00
54808;BME280;40708;50.364;7.550;2023-03-03T00:05:45;100971.63;;;0.30;100.00
54808;BME280;40708;50.364;7.550;2023-03-03T00:08:11;100975.97;;;0.30;100.00
54808;BME280;40708;50.364;7.550;2023-03-03T00:10:38;100983.66;;;0.27;100.00
54808;BME280;40708;50.364;7.550;2023-03-03T00:13:03;100985.34;;;0.26;100.00
54808;BME280;40708;50.364;7.550;2023-03-03T00:15:30;100988.03;;;0.28;100.00
54808;BME280;40708;50.364;7.550;2023-03-03T00:17:55;100986.78;;;0.37;100.00
54808;BME280;40708;50.364;7.550;2023-03-03T00:20:36;100984.84;;;0.33;100.00
54808;BME280;40708;50.364;7.550;2023-03-03T00:23:23;100986.84;;;0.21;100.00
54808;BME280;40708;50.364;7.550;2023-03-03T00:25:52;100986.09;;;0.24;100.00
54808;BME280;40708;50.364;7.550;2023-03-03T00:28:29;100996.00;;;0.13;100.00
54808;BME280;40708;50.364;7.550;2023-03-03T00:30:58;100995.75;;;0.09;100.00
54808;BME280;40708;50.364;7.550;2023-03-03T00:35:58;101003.19;;;0.01;100.00
54808;BME280;40708;50.364;7.550;2023-03-03T00:38:34;101003.56;;;0.09;100.00
54808;BME280;40708;50.364;7.550;2023-03-03T00:41:00;100999.94;;;0.05;100.00
54808;BME280;40708;50.364;7.550;2023-03-03T00:43:33;101007.03;;;0.08;100.00
54808;BME280;40708;50.364;7.550;2023-03-03T00:45:59;101004.09;;;0.02;100.00
54808;BME280;40708;50.364;7.550;2023-03-03T00:51:09;101015.28;;;-0.01;100.00
54808;BME280;40708;50.364;7.550;2023-03-03T00:53:43;101007.28;;;-0.04;100.00
54808;BME280;40708;50.364;7.550;2023-03-03T00:56:08;101011.75;;;-0.02;100.00
54808;BME280;40708;50.364;7.550;2023-03-03T00:58:33;101008.78;;;-0.09;100.00
54808;BME280;40708;50.364;7.550;2023-03-03T01:00:59;101020.97;;;-0.08;100.00
54808;BME280;40708;50.364;7.550;2023-03-03T01:03:25;101026.69;;;-0.15;100.00
54808;BME280;40708;50.364;7.550;2023-03-03T01:05:51;101016.53;;;-0.27;100.00
54808;BME280;40708;50.364;7.550;2023-03-03T01:08:18;101014.75;;;-0.28;100.00
54808;BME280;40708;50.364;7.550;2023-03-03T01:10:52;101023.69;;;-0.23;100.00
54808;BME280;40708;50.364;7.550;2023-03-03T01:13:20;101027.53;;;-0.32;100.00
54808;BME280;40708;50.364;7.550;2023-03-03T01:15:47;101022.56;;;-0.28;100.00
54808;BME280;40708;50.364;7.550;2023-03-03T01:18:13;101034.72;;;-0.28;100.00
54808;BME280;40708;50.364;7.550;2023-03-03T01:20:39;101026.09;;;-0.27;100.00
54808;BME280;40708;50.364;7.550;2023-03-03T01:23:05;101019.69;;;-0.16;100.00
54808;BME280;40708;50.364;7.550;2023-03-03T01:25:30;101019.63;;;-0.18;100.00
54808;BME280;40708;50.364;7.550;2023-03-03T01:27:56;101020.69;;;-0.14;100.00
54808;BME280;40708;50.364;7.550;2023-03-03T01:30:21;101022.88;;;-0.22;100.00
54808;BME280;40708;50.364;7.550;2023-03-03T01:32:47;101029.56;;;-0.27;100.00
54808;BME280;40708;50.364;7.550;2023-03-03T01:35:12;101017.19;;;-0.31;100.00
54808;BME280;40708;50.364;7.550;2023-03-03T01:37:37;101015.50;;;-0.30;100.00
54808;BME280;40708;50.364;7.550;2023-03-03T01:40:06;101024.44;;;-0.41;100.00
54808;BME280;40708;50.364;7.550;2023-03-03T01:42:32;101028.44;;;-0.48;100.00
54808;BME280;40708;50.364;7.550;2023-03-03T01:47:53;101027.53;;;-0.48;100.00
54808;BME280;40708;50.364;7.550;2023-03-03T01:53:16;101024.53;;;-0.56;100.00
54808;BME280;40708;50.364;7.550;2023-03-03T01:55:43;101024.91;;;-0.48;100.00
54808;BME280;40708;50.364;7.550;2023-03-03T01:58:13;101020.28;;;-0.54;100.00
54808;BME280;40708;50.364;7.550;2023-03-03T02:00:41;101023.88;;;-0.52;100.00
54808;BME280;40708;50.364;7.550;2023-03-03T02:03:09;101022.47;;;-0.62;100.00
54808;BME280;40708;50.364;7.550;2023-03-03T02:05:35;101016.06;;;-0.68;100.00
54808;BME280;40708;50.364;7.550;2023-03-03T02:08:02;101015.44;;;-0.79;100.00
54808;BME280;40708;50.364;7.550;2023-03-03T02:10:27;101023.72;;;-0.71;100.00
54808;BME280;40708;50.364;7.550;2023-03-03T02:12:55;101022.13;;;-0.84;100.00
54808;BME280;40708;50.364;7.550;2023-03-03T02:15:33;101025.56;;;-0.85;100.00
54808;BME280;40708;50.364;7.550;2023-03-03T02:18:13;101028.16;;;-0.85;100.00
54808;BME280;40708;50.364;7.550;2023-03-03T02:21:18;101030.19;;;-0.95;100.00
54808;BME280;40708;50.364;7.550;2023-03-03T02:26:15;101037.09;;;-0.96;100.00
54808;BME280;40708;50.364;7.550;2023-03-03T02:28:42;101050.00;;;-0.97;100.00
54808;BME280;40708;50.364;7.550;2023-03-03T02:31:11;101046.38;;;-1.01;100.00
54808;BME280;40708;50.364;7.550;2023-03-03T02:33:38;101051.66;;;-0.99;100.00
54808;BME280;40708;50.364;7.550;2023-03-03T02:36:04;101054.06;;;-1.02;100.00
54808;BME280;40708;50.364;7.550;2023-03-03T02:38:36;101053.16;;;-1.03;100.00
54808;BME280;40708;50.364;7.550;2023-03-03T02:41:41;101051.69;;;-0.83;100.00
54808;BME280;40708;50.364;7.550;2023-03-03T02:44:11;101053.84;;;-0.76;100.00
54808;BME280;40708;50.364;7.550;2023-03-03T02:46:39;101041.38;;;-0.82;100.00
54808;BME280;40708;50.364;7.550;2023-03-03T02:49:07;101032.16;;;-0.75;100.00
54808;BME280;40708;50.364;7.550;2023-03-03T02:51:32;101038.19;;;-0.76;100.00
54808;BME280;40708;50.364;7.550;2023-03-03T02:53:58;101048.28;;;-0.82;100.00
54808;BME280;40708;50.364;7.550;2023-03-03T02:56:23;101052.75;;;-0.80;100.00
54808;BME280;40708;50.364;7.550;2023-03-03T02:58:49;101054.13;;;-0.86;100.00
54808;BME280;40708;50.364;7.550;2023-03-03T03:01:14;101047.19;;;-0.86;100.00
54808;BME280;40708;50.364;7.550;2023-03-03T03:03:39;101056.72;;;-0.86;100.00
54808;BME280;40708;50.364;7.550;2023-03-03T03:06:06;101065.44;;;-0.86;100.00
54808;BME280;40708;50.364;7.550;2023-03-03T03:08:31;101068.69;;;-0.90;100.00
54808;BME280;40708;50.364;7.550;2023-03-03T03:10:56;101059.44;;;-0.85;100.00
54808;BME280;40708;50.364;7.550;2023-03-03T03:13:22;101061.19;;;-0.84;100.00
54808;BME280;40708;50.364;7.550;2023-03-03T03:15:48;101065.81;;;-0.94;100.00
54808;BME280;40708;50.364;7.550;2023-03-03T03:18:14;101068.53;;;-0.93;100.00
54808;BME280;40708;50.364;7.550;2023-03-03T03:20:40;101073.25;;;-0.86;100.00
54808;BME280;40708;50.364;7.550;2023-03-03T03:23:06;101074.50;;;-0.79;100.00
54808;BME280;40708;50.364;7.550;2023-03-03T03:25:31;101075.94;;;-0.84;100.00
54808;BME280;40708;50.364;7.550;2023-03-03T03:27:57;101076.94;;;-0.82;100.00
54808;BME280;40708;50.364;7.550;2023-03-03T03:30:22;101086.34;;;-0.84;100.00
54808;BME280;40708;50.364;7.550;2023-03-03T03:32:47;101090.13;;;-0.79;100.00
54808;BME280;40708;50.364;7.550;2023-03-03T03:35:13;101088.47;;;-0.63;100.00
54808;BME280;40708;50.364;7.550;2023-03-03T03:37:38;101089.16;;;-0.65;100.00
54808;BME280;40708;50.364;7.550;2023-03-03T03:40:04;101100.50;;;-0.48;100.00
54808;BME280;40708;50.364;7.550;2023-03-03T03:42:30;101103.06;;;-0.34;100.00
54808;BME280;40708;50.364;7.550;2023-03-03T03:44:55;101107.72;;;-0.28;100.00
54808;BME280;40708;50.364;7.550;2023-03-03T03:47:21;101105.16;;;-0.27;100.00
54808;BME280;40708;50.364;7.550;2023-03-03T03:49:46;101098.19;;;-0.28;100.00
54808;BME280;40708;50.364;7.550;2023-03-03T03:52:11;101102.72;;;-0.08;100.00
54808;BME280;40708;50.364;7.550;2023-03-03T03:54:36;101097.84;;;-0.02;100.00
54808;BME280;40708;50.364;7.550;2023-03-03T03:57:02;101105.91;;;0.03;100.00
54808;BME280;40708;50.364;7.550;2023-03-03T03:59:27;101102.31;;;0.01;100.00
54808;BME280;40708;50.364;7.550;2023-03-03T04:01:52;101103.72;;;-0.06;100.00
54808;BME280;40708;50.364;7.550;2023-03-03T04:04:18;101101.81;;;-0.08;100.00
54808;BME280;40708;50.364;7.550;2023-03-03T04:06:43;101104.53;;;-0.07;100.00
54808;BME280;40708;50.364;7.550;2023-03-03T04:09:09;101100.28;;;-0.05;100.00
54808;BME280;40708;50.364;7.550;2023-03-03T04:11:34;101105.34;;;-0.08;100.00
54808;BME280;40708;50.364;7.550;2023-03-03T04:14:00;101099.94;;;-0.11;100.00
54808;BME280;40708;50.364;7.550;2023-03-03T04:16:25;101112.59;;;-0.02;100.00
54808;BME280;40708;50.364;7.550;2023-03-03T04:18:50;101113.59;;;0.00;100.00
54808;BME280;40708;50.364;7.550;2023-03-03T04:21:15;101117.00;;;-0.01;100.00
54808;BME280;40708;50.364;7.550;2023-03-03T04:23:41;101122.22;;;-0.01;100.00
54808;BME280;40708;50.364;7.550;2023-03-03T04:26:07;101129.16;;;-0.02;100.00
54808;BME280;40708;50.364;7.550;2023-03-03T04:28:33;101134.38;;;-0.02;100.00
54808;BME280;40708;50.364;7.550;2023-03-03T04:30:58;101125.56;;;-0.04;100.00
54808;BME280;40708;50.364;7.550;2023-03-03T04:33:23;101123.69;;;-0.06;100.00
54808;BME280;40708;50.364;7.550;2023-03-03T04:35:48;101122.56;;;-0.11;100.00
54808;BME280;40708;50.364;7.550;2023-03-03T04:38:15;101124.25;;;-0.12;100.00
54808;BME280;40708;50.364;7.550;2023-03-03T04:40:41;101132.00;;;-0.13;100.00
54808;BME280;40708;50.364;7.550;2023-03-03T04:43:06;101134.38;;;-0.18;100.00
54808;BME280;40708;50.364;7.550;2023-03-03T04:45:32;101138.59;;;-0.20;100.00
54808;BME280;40708;50.364;7.550;2023-03-03T04:47:57;101145.59;;;-0.19;100.00
54808;BME280;40708;50.364;7.550;2023-03-03T04:50:22;101141.22;;;-0.20;100.00
54808;BME280;40708;50.364;7.550;2023-03-03T04:52:48;101134.84;;;-0.25;100.00
54808;BME280;40708;50.364;7.550;2023-03-03T04:55:13;101137.47;;;-0.25;100.00
54808;BME280;40708;50.364;7.550;2023-03-03T04:57:40;101141.59;;;-0.28;100.00
54808;BME280;40708;50.364;7.550;2023-03-03T05:00:06;101145.84;;;-0.30;100.00
54808;BME280;40708;50.364;7.550;2023-03-03T05:02:31;101147.63;;;-0.29;100.00
54808;BME280;40708;50.364;7.550;2023-03-03T05:04:56;101151.88;;;-0.31;100.00
54808;BME280;40708;50.364;7.550;2023-03-03T05:07:22;101164.97;;;-0.30;100.00
54808;BME280;40708;50.364;7.550;2023-03-03T05:09:48;101161.22;;;-0.35;100.00
54808;BME280;40708;50.364;7.550;2023-03-03T05:12:13;101157.63;;;-0.37;100.00
54808;BME280;40708;50.364;7.550;2023-03-03T05:14:39;101161.16;;;-0.36;100.00
54808;BME280;40708;50.364;7.550;2023-03-03T05:17:04;101168.06;;;-0.37;100.00
54808;BME280;40708;50.364;7.550;2023-03-03T05:19:30;101170.50;;;-0.40;100.00
54808;BME280;40708;50.364;7.550;2023-03-03T05:21:55;101174.50;;;-0.46;100.00
54808;BME280;40708;50.364;7.550;2023-03-03T05:24:21;101178.53;;;-0.51;100.00
54808;BME280;40708;50.364;7.550;2023-03-03T05:26:48;101178.47;;;-0.53;100.00
54808;BME280;40708;50.364;7.550;2023-03-03T05:29:13;101179.19;;;-0.55;100.00
54808;BME280;40708;50.364;7.550;2023-03-03T05:31:38;101174.59;;;-0.60;100.00
54808;BME280;40708;50.364;7.550;2023-03-03T05:34:04;101169.13;;;-0.64;100.00
54808;BME280;40708;50.364;7.550;2023-03-03T05:36:29;101169.13;;;-0.64;100.00
54808;BME280;40708;50.364;7.550;2023-03-03T05:38:54;101173.44;;;-0.65;100.00
54808;BME280;40708;50.364;7.550;2023-03-03T05:41:20;101179.75;;;-0.61;100.00
54808;BME280;40708;50.364;7.550;2023-03-03T05:43:45;101181.53;;;-0.60;100.00
54808;BME280;40708;50.364;7.550;2023-03-03T05:46:11;101183.44;;;-0.57;100.00
54808;BME280;40708;50.364;7.550;2023-03-03T05:48:36;101178.28;;;-0.56;100.00
54808;BME280;40708;50.364;7.550;2023-03-03T05:51:01;101183.59;;;-0.54;100.00
54808;BME280;40708;50.364;7.550;2023-03-03T05:53:28;101194.16;;;-0.51;100.00
54808;BME280;40708;50.364;7.550;2023-03-03T05:55:53;101203.00;;;-0.49;100.00
54808;BME280;40708;50.364;7.550;2023-03-03T05:58:19;101200.38;;;-0.49;100.00
54808;BME280;40708;50.364;7.550;2023-03-03T06:00:44;101199.47;;;-0.50;100.00
54808;BME280;40708;50.364;7.550;2023-03-03T06:03:09;101211.69;;;-0.49;100.00
54808;BME280;40708;50.364;7.550;2023-03-03T06:05:35;101212.69;;;-0.47;100.00
54808;BME280;40708;50.364;7.550;2023-03-03T06:08:00;101216.19;;;-0.46;100.00
54808;BME280;40708;50.364;7.550;2023-03-03T06:10:25;101211.78;;;-0.47;100.00
54808;BME280;40708;50.364;7.550;2023-03-03T06:12:51;101217.19;;;-0.44;100.00
54808;BME280;40708;50.364;7.550;2023-03-03T06:15:17;101231.28;;;-0.41;100.00
54808;BME280;40708;50.364;7.550;2023-03-03T06:17:42;101235.13;;;-0.34;100.00
54808;BME280;40708;50.364;7.550;2023-03-03T06:20:08;101245.00;;;-0.29;100.00
54808;BME280;40708;50.364;7.550;2023-03-03T06:22:33;101241.84;;;-0.23;100.00
54808;BME280;40708;50.364;7.550;2023-03-03T06:24:59;101242.44;;;-0.13;100.00
54808;BME280;40708;50.364;7.550;2023-03-03T06:27:24;101251.16;;;-0.12;100.00
54808;BME280;40708;50.364;7.550;2023-03-03T06:29:49;101248.91;;;-0.06;100.00
54808;BME280;40708;50.364;7.550;2023-03-03T06:32:14;101253.38;;;-0.04;100.00
54808;BME280;40708;50.364;7.550;2023-03-03T06:34:40;101244.91;;;0.00;100.00
54808;BME280;40708;50.364;7.550;2023-03-03T06:37:05;101240.03;;;0.07;100.00
54808;BME280;40708;50.364;7.550;2023-03-03T06:39:31;101242.97;;;0.13;100.00
54808;BME280;40708;50.364;7.550;2023-03-03T06:41:56;101251.22;;;0.20;100.00
54808;BME280;40708;50.364;7.550;2023-03-03T06:44:21;101248.53;;;0.19;100.00
54808;BME280;40708;50.364;7.550;2023-03-03T06:46:46;101257.50;;;0.24;100.00
54808;BME280;40708;50.364;7.550;2023-03-03T06:49:12;101258.41;;;0.24;100.00
54808;BME280;40708;50.364;7.550;2023-03-03T06:51:38;101257.34;;;0.21;100.00
54808;BME280;40708;50.364;7.550;2023-03-03T06:54:15;101258.41;;;0.24;100.00
54808;BME280;40708;50.364;7.550;2023-03-03T06:56:43;101255.22;;;0.30;100.00
54808;BME280;40708;50.364;7.550;2023-03-03T06:59:16;101251.22;;;0.36;100.00
54808;BME280;40708;50.364;7.550;2023-03-03T07:01:43;101260.69;;;0.50;100.00
54808;BME280;40708;50.364;7.550;2023-03-03T07:06:46;101260.84;;;0.53;100.00
54808;BME280;40708;50.364;7.550;2023-03-03T07:09:26;101266.13;;;0.71;100.00
54808;BME280;40708;50.364;7.550;2023-03-03T07:12:16;101270.53;;;0.88;100.00
54808;BME280;40708;50.364;7.550;2023-03-03T07:14:42;101275.13;;;0.92;100.00
54808;BME280;40708;50.364;7.550;2023-03-03T07:17:16;101283.66;;;1.06;100.00
54808;BME280;40708;50.364;7.550;2023-03-03T07:19:41;101275.34;;;0.97;100.00
54808;BME280;40708;50.364;7.550;2023-03-03T07:22:26;101286.72;;;1.15;100.00
54808;BME280;40708;50.364;7.550;2023-03-03T07:24:54;101280.69;;;1.16;100.00
54808;BME280;40708;50.364;7.550;2023-03-03T07:27:29;101292.34;;;1.23;100.00
54808;BME280;40708;50.364;7.550;2023-03-03T07:30:16;101294.69;;;1.34;100.00
54808;BME280;40708;50.364;7.550;2023-03-03T07:32:45;101299.25;;;1.38;100.00
54808;BME280;40708;50.364;7.550;2023-03-03T07:37:55;101291.22;;;1.51;100.00
54808;BME280;40708;50.364;7.550;2023-03-03T07:42:58;101281.84;;;1.74;100.00
54808;BME280;40708;50.364;7.550;2023-03-03T07:45:35;101284.47;;;1.74;100.00
54808;BME280;40708;50.364;7.550;2023-03-03T07:48:16;101284.47;;;1.74;100.00
54808;BME280;40708;50.364;7.550;2023-03-03T07:50:43;101287.94;;;1.73;100.00
54808;BME280;40708;50.364;7.550;2023-03-03T07:53:21;101284.41;;;1.90;100.00
54808;BME280;40708;50.364;7.550;2023-03-03T07:55:50;101279.03;;;1.87;100.00
54808;BME280;40708;50.364;7.550;2023-03-03T07:58:26;101270.84;;;1.99;100.00
54808;BME280;40708;50.364;7.550;2023-03-03T08:03:57;101258.06;;;2.80;100.00
54808;BME280;40708;50.364;7.550;2023-03-03T08:11:33;101239.34;;;3.31;100.00
54808;BME280;40708;50.364;7.550;2023-03-03T08:13:59;101238.06;;;3.65;100.00
54808;BME280;40708;50.364;7.550;2023-03-03T08:16:36;101240.09;;;3.49;100.00
54808;BME280;40708;50.364;7.550;2023-03-03T08:19:03;101234.63;;;3.66;100.00
54808;BME280;40708;50.364;7.550;2023-03-03T08:21:29;101235.97;;;3.77;100.00
54808;BME280;40708;50.364;7.550;2023-03-03T08:23:56;101234.53;;;3.85;100.00
54808;BME280;40708;50.364;7.550;2023-03-03T08:26:24;101234.41;;;3.82;100.00
54808;BME280;40708;50.364;7.550;2023-03-03T08:28:50;101237.84;;;3.38;100.00
54808;BME280;40708;50.364;7.550;2023-03-03T08:31:15;101238.75;;;3.38;100.00
54808;BME280;40708;50.364;7.550;2023-03-03T08:33:44;101241.03;;;3.10;100.00
54808;BME280;40708;50.364;7.550;2023-03-03T08:36:10;101244.34;;;3.06;100.00
54808;BME280;40708;50.364;7.550;2023-03-03T08:38:36;101233.00;;;2.86;100.00
54808;BME280;40708;50.364;7.550;2023-03-03T08:41:02;101239.44;;;2.93;100.00
54808;BME280;40708;50.364;7.550;2023-03-03T08:43:28;101247.50;;;3.18;100.00
54808;BME280;40708;50.364;7.550;2023-03-03T08:45:57;101262.25;;;3.16;100.00
54808;BME280;40708;50.364;7.550;2023-03-03T08:48:23;101255.38;;;2.99;100.00
54808;BME280;40708;50.364;7.550;2023-03-03T08:50:48;101247.47;;;2.97;100.00
54808;BME280;40708;50.364;7.550;2023-03-03T08:53:14;101251.22;;;2.83;100.00
54808;BME280;40708;50.364;7.550;2023-03-03T08:55:41;101248.72;;;2.86;100.00
54808;BME280;40708;50.364;7.550;2023-03-03T08:58:06;101260.88;;;2.84;100.00
54808;BME280;40708;50.364;7.550;2023-03-03T09:00:32;101270.94;;;2.94;100.00
54808;BME280;40708;50.364;7.550;2023-03-03T09:02:57;101270.47;;;2.84;100.00
54808;BME280;40708;50.364;7.550;2023-03-03T09:05:24;101270.50;;;2.85;100.00
54808;BME280;40708;50.364;7.550;2023-03-03T09:07:50;101277.22;;;2.98;100.00
54808;BME280;40708;50.364;7.550;2023-03-03T09:10:19;101272.72;;;2.95;100.00
54808;BME280;40708;50.364;7.550;2023-03-03T09:12:52;101280.66;;;2.97;100.00
54808;BME280;40708;50.364;7.550;2023-03-03T09:15:26;101276.72;;;3.07;100.00
54808;BME280;40708;50.364;7.550;2023-03-03T09:17:53;101275.63;;;3.02;100.00
54808;BME280;40708;50.364;7.550;2023-03-03T09:20:32;101276.41;;;3.20;100.00
54808;BME280;40708;50.364;7.550;2023-03-03T09:23:15;101275.38;;;2.76;100.00
54808;BME280;40708;50.364;7.550;2023-03-03T09:25:45;101276.09;;;3.12;100.00
54808;BME280;40708;50.364;7.550;2023-03-03T09:28:28;101281.81;;;3.04;100.00
54808;BME280;40708;50.364;7.550;2023-03-03T09:30:57;101283.97;;;3.12;100.00
54808;BME280;40708;50.364;7.550;2023-03-03T09:33:27;101284.34;;;3.21;100.00
54808;BME280;40708;50.364;7.550;2023-03-03T09:36:49;101299.81;;;3.15;100.00
54808;BME280;40708;50.364;7.550;2023-03-03T09:39:26;101296.81;;;3.27;100.00
54808;BME280;40708;50.364;7.550;2023-03-03T09:47:54;101286.06;;;3.21;100.00
54808;BME280;40708;50.364;7.550;2023-03-03T10:11:06;101293.06;;;3.82;100.00
54808;BME280;40708;50.364;7.550;2023-03-03T10:13:38;101290.78;;;3.69;100.00
54808;BME280;40708;50.364;7.550;2023-03-03T10:18:57;101288.66;;;4.03;100.00
54808;BME280;40708;50.364;7.550;2023-03-03T10:21:46;101296.53;;;4.03;100.00
54808;BME280;40708;50.364;7.550;2023-03-03T10:32:44;101315.00;;;3.84;100.00
54808;BME280;40708;50.364;7.550;2023-03-03T10:38:38;101323.56;;;4.01;100.00
54808;BME280;40708;50.364;7.550;2023-03-03T10:44:15;101330.06;;;4.10;100.00
54808;BME280;40708;50.364;7.550;2023-03-03T10:49:44;101326.03;;;4.41;100.00
54808;BME280;40708;50.364;7.550;2023-03-03T10:55:26;101318.22;;;4.64;100.00
54808;BME280;40708;50.364;7.550;2023-03-03T10:58:07;101321.66;;;4.63;100.00
54808;BME280;40708;50.364;7.550;2023-03-03T11:04:06;101335.06;;;4.47;100.00
54808;BME280;40708;50.364;7.550;2023-03-03T11:12:22;101327.50;;;4.78;100.00
54808;BME280;40708;50.364;7.550;2023-03-03T11:20:25;101318.63;;;4.75;100.00
54808;BME280;40708;50.364;7.550;2023-03-03T11:23:25;101317.28;;;4.86;100.00
54808;BME280;40708;50.364;7.550;2023-03-03T11:31:28;101300.38;;;4.79;100.00
54808;BME280;40708;50.364;7.550;2023-03-03T11:34:18;101306.56;;;4.81;100.00
54808;BME280;40708;50.364;7.550;2023-03-03T11:37:21;101305.81;;;5.08;100.00
54808;BME280;40708;50.364;7.550;2023-03-03T11:39:49;101303.78;;;5.01;100.00
54808;BME280;40708;50.364;7.550;2023-03-03T11:42:23;101303.19;;;5.08;100.00
54808;BME280;40708;50.364;7.550;2023-03-03T11:45:02;101303.28;;;4.87;100.00
54808;BME280;40708;50.364;7.550;2023-03-03T11:50:21;101293.69;;;5.36;100.00
54808;BME280;40708;50.364;7.550;2023-03-03T11:55:48;101294.69;;;5.40;100.00
54808;BME280;40708;50.364;7.550;2023-03-03T11:58:24;101284.84;;;5.60;100.00
54808;BME280;40708;50.364;7.550;2023-03-03T12:01:13;101286.63;;;5.35;100.00
54808;BME280;40708;50.364;7.550;2023-03-03T12:03:51;101283.84;;;5.31;100.00
54808;BME280;40708;50.364;7.550;2023-03-03T12:09:00;101281.97;;;5.03;100.00
54808;BME280;40708;50.364;7.550;2023-03-03T12:14:38;101270.09;;;5.39;100.00
54808;BME280;40708;50.364;7.550;2023-03-03T12:19:55;101270.06;;;5.38;100.00
54808;BME280;40708;50.364;7.550;2023-03-03T12:25:29;101250.88;;;5.42;100.00
54808;BME280;40708;50.364;7.550;2023-03-03T12:28:02;101254.19;;;5.87;100.00
54808;BME280;40708;50.364;7.550;2023-03-03T12:39:08;101231.59;;;6.23;100.00
54808;BME280;40708;50.364;7.550;2023-03-03T12:44:32;101214.72;;;6.76;100.00
54808;BME280;40708;50.364;7.550;2023-03-03T12:47:15;101220.59;;;6.08;100.00
54808;BME280;40708;50.364;7.550;2023-03-03T12:55:30;101211.22;;;6.18;100.00
54808;BME280;40708;50.364;7.550;2023-03-03T13:00:56;101204.41;;;6.24;100.00
54808;BME280;40708;50.364;7.550;2023-03-03T13:03:35;101192.84;;;6.49;100.00
54808;BME280;40708;50.364;7.550;2023-03-03T13:09:34;101199.22;;;5.97;100.00
54808;BME280;40708;50.364;7.550;2023-03-03T13:14:56;101190.34;;;5.95;100.00
54808;BME280;40708;50.364;7.550;2023-03-03T13:20:26;101197.28;;;5.92;100.00
54808;BME280;40708;50.364;7.550;2023-03-03T13:25:50;101186.41;;;6.39;100.00
54808;BME280;40708;50.364;7.550;2023-03-03T13:28:54;101186.72;;;6.20;100.00
54808;BME280;40708;50.364;7.550;2023-03-03T13:31:25;101202.78;;;5.46;100.00
54808;BME280;40708;50.364;7.550;2023-03-03T13:33:56;101187.91;;;5.75;100.00
54808;BME280;40708;50.364;7.550;2023-03-03T13:37:17;101181.34;;;6.17;100.00
54808;BME280;40708;50.364;7.550;2023-03-03T13:39:29;101195.50;;;5.92;100.00
54808;BME280;40708;50.364;7.550;2023-03-03T13:42:05;101190.31;;;6.22;100.00
54808;BME280;40708;50.364;7.550;2023-03-03T13:44:39;101188.72;;;6.29;100.00
54808;BME280;40708;50.364;7.550;2023-03-03T13:47:13;101189.50;;;5.96;100.00
54808;BME280;40708;50.364;7.550;2023-03-03T13:52:11;101179.41;;;6.41;100.00
54808;BME280;40708;50.364;7.550;2023-03-03T13:54:47;101171.03;;;6.54;100.00
54808;BME280;40708;50.364;7.550;2023-03-03T13:57:57;101166.25;;;6.71;100.00
54808;BME280;40708;50.364;7.550;2023-03-03T14:03:18;101171.72;;;6.18;100.00
54808;BME280;40708;50.364;7.550;2023-03-03T14:06:16;101162.28;;;5.69;100.00
54808;BME280;40708;50.364;7.550;2023-03-03T14:11:22;101169.06;;;6.18;100.00
54808;BME280;40708;50.364;7.550;2023-03-03T14:19:16;101160.50;;;6.54;100.00
54808;BME280;40708;50.364;7.550;2023-03-03T14:24:16;101159.66;;;6.26;100.00
54808;BME280;40708;50.364;7.550;2023-03-03T14:26:52;101139.03;;;5.83;100.00
54808;BME280;40708;50.364;7.550;2023-03-03T14:31:53;101156.63;;;5.84;100.00
54808;BME280;40708;50.364;7.550;2023-03-03T14:36:46;101146.94;;;5.84;100.00
54808;BME280;40708;50.364;7.550;2023-03-03T14:39:37;101143.09;;;6.00;100.00
54808;BME280;40708;50.364;7.550;2023-03-03T14:42:30;101156.34;;;6.03;100.00
54808;BME280;40708;50.364;7.550;2023-03-03T14:44:58;101144.31;;;5.84;100.00
54808;BME280;40708;50.364;7.550;2023-03-03T14:47:26;101150.84;;;5.95;100.00
54808;BME280;40708;50.364;7.550;2023-03-03T14:49:53;101150.59;;;5.60;100.00
54808;BME280;40708;50.364;7.550;2023-03-03T14:52:22;101144.19;;;5.52;100.00
54808;BME280;40708;50.364;7.550;2023-03-03T14:54:56;101150.28;;;5.51;100.00
54808;BME280;40708;50.364;7.550;2023-03-03T15:02:40;101153.69;;;5.75;100.00
54808;BME280;40708;50.364;7.550;2023-03-03T15:07:43;101149.78;;;5.62;100.00
54808;BME280;40708;50.364;7.550;2023-03-03T15:10:09;101153.22;;;5.60;100.00
54808;BME280;40708;50.364;7.550;2023-03-03T15:12:39;101143.16;;;5.75;100.00
54808;BME280;40708;50.364;7.550;2023-03-03T15:17:36;101139.28;;;5.62;100.00
54808;BME280;40708;50.364;7.550;2023-03-03T15:20:21;101131.28;;;5.32;100.00
54808;BME280;40708;50.364;7.550;2023-03-03T15:28:35;101137.84;;;5.18;100.00
54808;BME280;40708;50.364;7.550;2023-03-03T15:34:17;101127.44;;;4.96;100.00
54808;BME280;40708;50.364;7.550;2023-03-03T15:37:08;101133.06;;;4.81;100.00
54808;BME280;40708;50.364;7.550;2023-03-03T15:40:15;101138.78;;;4.95;100.00
54808;BME280;40708;50.364;7.550;2023-03-03T15:43:01;101134.97;;;4.86;100.00
54808;BME280;40708;50.364;7.550;2023-03-03T15:46:41;101142.19;;;4.91;100.00
54808;BME280;40708;50.364;7.550;2023-03-03T15:48:52;101140.94;;;4.81;100.00
54808;BME280;40708;50.364;7.550;2023-03-03T15:51:38;101141.94;;;4.84;100.00
54808;BME280;40708;50.364;7.550;2023-03-03T15:54:27;101125.50;;;4.65;100.00
54808;BME280;40708;50.364;7.550;2023-03-03T15:57:16;101131.94;;;4.50;100.00
54808;BME280;40708;50.364;7.550;2023-03-03T15:59:56;101142.28;;;4.69;100.00
54808;BME280;40708;50.364;7.550;2023-03-03T16:05:30;101151.41;;;4.55;100.00
54808;BME280;40708;50.364;7.550;2023-03-03T16:08:03;101148.09;;;4.60;100.00
54808;BME280;40708;50.364;7.550;2023-03-03T16:22:14;101162.25;;;4.16;100.00
54808;BME280;40708;50.364;7.550;2023-03-03T16:30:33;101178.75;;;3.90;100.00
54808;BME280;40708;50.364;7.550;2023-03-03T16:36:12;101197.53;;;3.79;100.00